Time;durP1;ratioP1;P1;durP2;ratioP2;P2;SDS_P1;SDS_P2;PMS_P1;PMS_P2;Temp;Humidity;BMP_temperature;BMP_pressure;BME280_temperature;BME280_humidity;BME280_pressure;Samples;Min_cycle;Max_cycle;Signal;HPM_P1;HPM_P2
2022/06/17 00:04:56;;;;;;;1.65;0.90;;;;;;;20.75;42.96;100891.22;10236737;28;20134;-52
2022/06/17 00:09:57;;;;;;;2.65;1.30;;;;;;;20.86;42.67;100895.41;10218951;28;20493;-52
2022/06/17 00:15:14;;;;;;;1.45;1.00;;;;;;;20.71;43.14;100888.00;10232959;28;20110;-53
2022/06/17 00:20:18;;;;;;;3.78;1.00;;;;;;;20.62;43.27;100875.50;10224175;28;20113;-52
2022/06/17 00:25:24;;;;;;;2.83;1.20;;;;;;;20.54;43.04;100859.31;10231659;28;20164;-53
2022/06/17 00:30:29;;;;;;;2.67;0.98;;;;;;;20.67;42.81;100862.31;10234840;28;20102;-52
2022/06/17 00:35:35;;;;;;;4.93;1.30;;;;;;;20.56;42.59;100870.78;10233461;28;20133;-53
2022/06/17 00:40:36;;;;;;;2.42;1.40;;;;;;;20.48;42.92;100877.91;10237299;28;20669;-52
2022/06/17 00:45:53;;;;;;;1.27;1.17;;;;;;;20.41;42.99;100860.69;10239349;28;20158;-54
2022/06/17 00:50:59;;;;;;;2.88;1.13;;;;;;;20.28;43.12;100852.25;10235027;28;20142;-53
2022/06/17 00:56:09;;;;;;;2.08;1.23;;;;;;;20.29;44.04;100867.47;10218229;28;20141;-52
2022/06/17 01:01:11;;;;;;;2.75;1.50;;;;;;;20.33;43.99;100868.81;10235788;28;20058;-57
2022/06/17 01:06:15;;;;;;;2.15;1.30;;;;;;;20.34;43.42;100873.19;10236670;28;20082;-52
2022/06/17 01:11:17;;;;;;;2.97;0.82;;;;;;;20.32;43.28;100883.34;10234860;28;20121;-54
2022/06/17 01:16:22;;;;;;;2.78;1.50;;;;;;;20.24;44.17;100880.69;10217842;28;20164;-54
2022/06/17 01:21:32;;;;;;;1.40;1.27;;;;;;;20.23;43.76;100889.78;10237678;28;20055;-53
2022/06/17 01:26:34;;;;;;;3.10;1.13;;;;;;;20.19;43.68;100893.84;10226320;28;20509;-53
2022/06/17 01:31:36;;;;;;;2.50;1.25;;;;;;;20.16;43.83;100883.38;10228789;28;20130;-52
2022/06/17 01:36:37;;;;;;;1.73;1.35;;;;;;;20.12;44.65;100889.13;10237495;28;20130;-52
2022/06/17 01:41:41;;;;;;;2.65;0.98;;;;;;;20.08;44.51;100893.19;10234921;28;20055;-52
2022/06/17 01:46:45;;;;;;;1.83;1.15;;;;;;;20.08;43.84;100892.34;10228285;28;20175;-52
2022/06/17 01:52:00;;;;;;;4.07;1.50;;;;;;;20.05;43.68;100885.41;10234400;28;20055;-52
2022/06/17 01:57:05;;;;;;;2.78;1.58;;;;;;;20.01;43.48;100894.03;10217133;28;20066;-52
2022/06/17 02:02:09;;;;;;;2.58;1.30;;;;;;;19.76;43.90;100873.25;10233651;28;20267;-52
2022/06/17 02:07:20;;;;;;;3.35;1.38;;;;;;;19.90;44.10;100881.72;10234496;28;20156;-56
2022/06/17 02:12:24;;;;;;;3.80;1.33;;;;;;;19.77;44.28;100866.88;10236925;28;20178;-52
2022/06/17 02:17:28;;;;;;;;;;;;;;;19.83;44.31;100888.81;10234245;28;20162;-52
2022/06/17 02:22:32;;;;;;;2.83;1.13;;;;;;;19.76;44.33;100878.66;10222284;28;20020;-54
2022/06/17 02:27:34;;;;;;;2.95;1.45;;;;;;;19.76;44.48;100873.25;10213981;28;20904;-52
2022/06/17 02:32:37;;;;;;;1.70;1.23;;;;;;;19.75;44.47;100871.53;10226125;28;20077;-53
2022/06/17 02:37:39;;;;;;;1.53;1.30;;;;;;;19.69;44.51;100872.22;10232641;28;20082;-51
2022/06/17 02:42:40;;;;;;;2.92;1.40;;;;;;;19.61;44.79;100878.47;10236945;28;20577;-52
2022/06/17 02:47:43;;;;;;;2.95;1.52;;;;;;;19.56;44.77;100877.28;10280995;23;20488;-54
2022/06/17 02:52:45;;;;;;;3.75;1.60;;;;;;;19.55;44.88;100881.00;10341159;28;20069;-55
2022/06/17 02:57:47;;;;;;;2.67;1.92;;;;;;;19.51;44.80;100885.88;10336898;28;20061;-54
2022/06/17 03:02:53;;;;;;;2.33;1.20;;;;;;;19.50;44.76;100886.03;10339357;28;20106;-54
2022/06/17 03:07:56;;;;;;;2.33;1.60;;;;;;;19.45;45.14;100886.53;10359317;28;20052;-54
2022/06/17 03:13:31;;;;;;;2.60;1.43;;;;;;;19.44;45.32;100868.66;10376272;28;20132;-55
2022/06/17 03:18:33;;;;;;;1.48;1.35;;;;;;;19.41;45.41;100872.56;10330767;28;20128;-53
2022/06/17 03:23:47;;;;;;;1.75;1.45;;;;;;;19.39;45.20;100881.81;10314008;28;20895;-54
2022/06/17 03:28:51;;;;;;;2.53;1.10;;;;;;;19.32;45.53;100887.03;10334726;28;20069;-57
2022/06/17 03:34:00;;;;;;;1.63;1.15;;;;;;;19.37;45.74;100889.25;10322273;28;20212;-55
2022/06/17 03:39:07;;;;;;;2.42;1.45;;;;;;;19.35;45.64;100897.50;10382318;28;20064;-54
2022/06/17 03:44:17;;;;;;;3.08;1.45;;;;;;;19.34;45.78;100905.78;10385775;28;20202;-54
2022/06/17 03:49:25;;;;;;;2.38;1.52;;;;;;;19.29;46.12;100905.41;10383354;28;20490;-56
2022/06/17 03:54:27;;;;;;;1.92;1.40;;;;;;;19.24;46.28;100905.91;10382536;28;20140;-53
2022/06/17 03:59:30;;;;;;;2.00;1.40;;;;;;;19.22;46.42;100919.56;10387033;28;20120;-54
2022/06/17 04:04:40;;;;;;;3.35;1.88;;;;;;;19.22;46.49;100933.06;10390414;28;20715;-54
2022/06/17 04:09:44;;;;;;;2.67;1.60;;;;;;;19.24;46.75;100935.59;10380790;28;20049;-55
2022/06/17 04:14:48;;;;;;;2.13;1.70;;;;;;;19.23;46.87;100958.19;10380442;28;20554;-55
2022/06/17 04:19:59;;;;;;;3.03;1.52;;;;;;;19.16;47.69;100962.56;10395320;28;20120;-54
2022/06/17 04:25:13;;;;;;;1.77;1.67;;;;;;;19.02;48.05;100966.69;10399795;28;20048;-54
2022/06/17 04:30:21;;;;;;;2.83;1.63;;;;;;;19.06;47.92;100974.31;10385903;28;20607;-54
2022/06/17 04:35:23;;;;;;;2.50;1.70;;;;;;;19.13;48.17;100977.22;10386838;28;20068;-57
2022/06/17 04:40:39;;;;;;;4.55;1.92;;;;;;;19.16;47.59;100984.97;10405458;28;20096;-54
2022/06/17 04:45:53;;;;;;;3.83;2.22;;;;;;;19.16;47.85;100978.75;10386101;28;20049;-56
2022/06/17 04:50:55;;;;;;;4.95;1.80;;;;;;;19.17;48.15;100985.81;10382924;28;20041;-55
2022/06/17 04:55:58;;;;;;;2.25;1.75;;;;;;;19.21;47.74;100981.78;10386019;28;20072;-55
2022/06/17 05:01:00;;;;;;;2.58;1.58;;;;;;;19.26;48.15;100968.69;10353843;28;20098;-62
2022/06/17 05:06:01;;;;;;;2.42;2.20;;;;;;;19.34;48.25;100967.84;10368362;28;20068;-63
2022/06/17 05:11:14;;;;;;;3.10;1.77;;;;;;;19.33;48.36;100952.66;10369205;28;20095;-63
2022/06/17 05:16:15;;;;;;;3.20;1.50;;;;;;;19.32;47.82;100961.75;10362515;28;20131;-62
2022/06/17 05:21:23;;;;;;;2.67;1.85;;;;;;;19.24;48.22;100965.28;10370942;28;20136;-63
2022/06/17 05:26:24;;;;;;;4.45;1.67;;;;;;;19.31;48.81;100987.06;10359610;28;20126;-65
2022/06/17 05:31:27;;;;;;;2.33;1.58;;;;;;;19.34;48.29;100982.19;10372375;28;20506;-63
2022/06/17 05:36:29;;;;;;;2.60;1.73;;;;;;;19.39;48.08;100985.22;10368621;28;20052;-63
2022/06/17 05:41:30;;;;;;;5.43;2.60;;;;;;;19.49;49.77;100990.50;10372798;28;20053;-63
2022/06/17 05:46:32;;;;;;;3.53;1.60;;;;;;;19.59;48.91;100987.66;10372881;28;20053;-63
2022/06/17 05:51:33;;;;;;;3.60;1.83;;;;;;;19.69;49.34;100993.75;10370741;28;20068;-62
2022/06/17 05:56:35;;;;;;;3.75;1.50;;;;;;;19.77;47.76;100983.00;10371889;28;20116;-62
2022/06/17 06:01:37;;;;;;;2.88;1.67;;;;;;;19.88;48.04;100992.66;10369858;28;20053;-62
2022/06/17 06:06:39;;;;;;;2.20;1.50;;;;;;;19.99;47.26;100996.03;10371560;28;20119;-63
2022/06/17 06:11:40;;;;;;;3.30;1.27;;;;;;;20.06;47.09;100997.91;10368906;28;20049;-64
2022/06/17 06:16:42;;;;;;;2.97;1.42;;;;;;;20.19;46.27;101001.97;10368302;28;20063;-64
2022/06/17 06:21:43;;;;;;;5.25;1.58;;;;;;;20.31;47.15;101012.28;10367965;28;20653;-64
2022/06/17 06:26:45;;;;;;;4.45;2.47;;;;;;;20.46;45.43;101020.56;10367048;28;20793;-64
2022/06/17 06:31:48;;;;;;;5.32;1.70;;;;;;;20.56;44.00;101019.53;10372117;28;20056;-64
2022/06/17 06:36:49;;;;;;;6.18;1.80;;;;;;;20.61;44.91;101018.00;10374313;28;24378;-64
2022/06/17 06:41:51;;;;;;;2.78;1.55;;;;;;;20.68;43.78;101029.00;10365262;28;20057;-63
2022/06/17 06:46:52;;;;;;;4.50;2.50;;;;;;;20.79;43.37;101025.09;10371233;28;20052;-65
2022/06/17 06:51:54;;;;;;;4.20;1.50;;;;;;;20.89;43.31;101023.06;10367509;28;20493;-63
2022/06/17 06:56:59;;;;;;;3.60;1.80;;;;;;;20.97;43.81;101014.94;10364000;28;20063;-66
2022/06/17 07:02:21;;;;;;;2.67;1.50;;;;;;;21.12;43.44;101022.31;10360986;28;20395;-63
2022/06/17 07:07:23;;;;;;;2.03;1.17;;;;;;;21.31;43.61;101032.72;10370717;28;20060;-63
2022/06/17 07:12:24;;;;;;;3.92;1.77;;;;;;;21.51;42.88;101019.66;10365810;28;20104;-64
2022/06/17 07:17:26;;;;;;;1.85;1.25;;;;;;;21.59;42.95;101021.47;10372345;28;20457;-63
2022/06/17 07:22:27;;;;;;;3.50;1.60;;;;;;;21.83;42.49;101014.25;10368223;28;20048;-64
2022/06/17 07:27:29;;;;;;;1.48;1.10;;;;;;;21.93;42.26;101011.28;10369080;28;20131;-64
2022/06/17 07:32:30;;;;;;;2.28;1.00;;;;;;;22.15;41.78;101026.72;10363807;28;20047;-62
2022/06/17 07:42:52;;;;;;;2.95;1.00;;;;;;;22.33;41.26;101022.88;10371432;28;20071;-65
2022/06/17 07:47:55;;;;;;;3.28;1.25;;;;;;;22.50;40.29;101018.16;10361580;28;20134;-67
2022/06/17 07:52:57;;;;;;;2.75;1.25;;;;;;;22.69;40.61;101014.09;10374403;28;20125;-64
2022/06/17 07:57:59;;;;;;;2.58;1.48;;;;;;;22.98;39.50;100998.84;10375818;28;20143;-61
2022/06/17 08:03:01;;;;;;;1.95;0.95;;;;;;;23.11;39.49;101004.50;10376199;28;20122;-62
2022/06/17 08:08:04;;;;;;;1.75;0.98;;;;;;;23.34;37.59;101011.69;10386062;28;20284;-64
2022/06/17 08:13:07;;;;;;;1.75;0.98;;;;;;;23.25;37.45;101017.19;10380118;28;20531;-64
2022/06/17 08:18:09;;;;;;;1.30;1.15;;;;;;;23.50;36.17;100991.63;10380299;28;20067;-65
2022/06/17 08:23:15;;;;;;;1.27;0.73;;;;;;;23.72;35.38;100985.19;10378326;28;20052;-65
2022/06/17 08:28:18;;;;;;;2.78;1.10;;;;;;;23.85;36.01;100994.50;10374561;28;21232;-65
2022/06/17 08:33:27;;;;;;;3.70;1.02;;;;;;;24.17;35.54;100998.63;10375452;28;20904;-64
2022/06/17 08:38:50;;;;;;;6.57;1.30;;;;;;;24.62;34.63;100988.34;10376878;28;20041;-65
2022/06/17 08:44:17;;;;;;;1.90;1.00;;;;;;;24.75;35.28;100981.31;10380201;28;20053;-61
2022/06/17 08:49:33;;;;;;;1.10;0.73;;;;;;;24.94;33.92;100977.84;10381822;28;20191;-63
2022/06/17 08:55:01;;;;;;;3.80;1.25;;;;;;;25.06;33.65;100969.97;10384752;28;20156;-63
2022/06/17 09:00:06;;;;;;;2.92;0.73;;;;;;;25.06;33.76;100976.25;10386762;28;20052;-63
2022/06/17 09:05:13;;;;;;;2.22;0.93;;;;;;;25.12;33.76;100971.03;10370876;28;20167;-60
2022/06/17 09:10:50;;;;;;;2.15;1.10;;;;;;;25.35;33.44;100965.28;10314951;28;20143;-62
2022/06/17 09:16:01;;;;;;;3.83;1.05;;;;;;;25.75;33.30;100974.44;10372360;28;20040;-63
2022/06/17 09:21:13;;;;;;;1.67;0.77;;;;;;;26.15;32.18;100972.81;10375438;28;20052;-62
2022/06/17 09:26:39;;;;;;;4.60;1.13;;;;;;;26.45;31.02;100962.31;10375355;28;20531;-63
2022/06/17 09:31:56;;;;;;;2.58;0.80;;;;;;;26.10;31.65;100962.53;10368454;28;21176;-65
2022/06/17 09:37:07;;;;;;;6.03;2.38;;;;;;;26.18;32.73;100967.81;10373397;28;20472;-64
2022/06/17 09:42:16;;;;;;;2.80;0.90;;;;;;;26.72;30.83;100963.16;10369009;28;20234;-66
2022/06/17 09:47:31;;;;;;;1.52;0.93;;;;;;;26.72;29.89;100963.16;10375097;28;20098;-64
2022/06/17 09:52:56;;;;;;;1.73;0.93;;;;;;;26.20;30.70;100964.88;10374422;28;20547;-63
2022/06/17 09:58:02;;;;;;;1.25;0.75;;;;;;;26.27;31.07;100966.53;10371480;28;20135;-62
2022/06/17 10:03:20;;;;;;;4.30;1.00;;;;;;;26.88;30.26;100971.94;10373429;28;20187;-64
2022/06/17 10:08:32;;;;;;;3.08;1.00;;;;;;;27.29;28.89;100962.53;10371890;28;20113;-65
2022/06/17 10:14:15;;;;;;;2.47;0.80;;;;;;;27.62;30.25;100951.47;10365935;28;20770;-63
2022/06/17 10:19:35;;;;;;;3.03;0.93;;;;;;;28.18;28.22;100958.03;10366899;28;20201;-65
2022/06/17 10:24:42;;;;;;;2.65;0.85;;;;;;;28.43;27.22;100943.47;10373584;28;20281;-63
2022/06/17 10:30:05;;;;;;;2.45;0.90;;;;;;;28.58;26.76;100945.88;10374433;28;20049;-63
2022/06/17 10:35:14;;;;;;;3.00;0.77;;;;;;;28.73;27.43;100934.56;10369252;28;20048;-64
2022/06/17 10:40:18;;;;;;;3.58;0.93;;;;;;;28.64;27.87;100930.47;10366536;28;20154;-63
2022/06/17 10:45:20;;;;;;;2.75;1.52;;;;;;;28.88;27.53;100931.47;10367664;28;20858;-64
2022/06/17 10:50:24;;;;;;;4.15;1.25;;;;;;;29.05;26.86;100926.19;10371204;28;20213;-64
2022/06/17 10:56:01;;;;;;;1.52;1.17;;;;;;;29.26;25.96;100924.91;10369763;28;20041;-65
2022/06/17 11:01:15;;;;;;;3.15;0.90;;;;;;;29.48;26.47;100908.75;10330969;28;20661;-65
2022/06/17 11:06:22;;;;;;;2.75;1.02;;;;;;;29.61;26.78;100911.31;10372626;28;20153;-66
2022/06/17 11:17:42;;;;;;;3.80;0.93;;;;;;;29.61;24.77;100918.72;10379319;28;20052;-63
2022/06/17 11:22:52;;;;;;;2.13;0.68;;;;;;;29.61;25.95;100908.56;10367716;28;20070;-63
2022/06/17 11:27:56;;;;;;;2.63;1.00;;;;;;;29.75;24.67;100908.38;10384047;28;20146;-65
2022/06/17 11:32:59;;;;;;;1.90;0.60;;;;;;;29.80;24.95;100911.25;10379363;28;20609;-64
2022/06/17 11:38:09;;;;;;;2.80;0.80;;;;;;;29.94;24.09;100912.72;10383711;28;21089;-64
2022/06/17 11:43:45;;;;;;;3.83;0.80;;;;;;;29.78;25.11;100905.16;10386155;28;20619;-64
2022/06/17 11:48:52;;;;;;;1.33;0.65;;;;;;;29.55;24.97;100904.03;10378536;28;20430;-57
2022/06/17 11:54:04;;;;;;;2.45;0.70;;;;;;;29.66;26.18;100882.34;10379903;28;20606;-58
2022/06/17 11:59:13;;;;;;;1.55;0.80;;;;;;;29.75;24.97;100872.69;10377519;28;20136;-59
2022/06/17 12:05:12;;;;;;;2.17;0.60;;;;;;;29.80;24.79;100867.34;10379977;28;20240;-59
2022/06/17 12:10:49;;;;;;;1.17;0.60;;;;;;;29.81;24.46;100863.56;10246429;28;20968;-59
2022/06/17 12:16:08;;;;;;;2.15;0.65;;;;;;;29.80;23.88;100861.88;10363037;28;20044;-59
2022/06/17 12:21:19;;;;;;;4.28;0.75;;;;;;;29.91;23.56;100858.31;10375570;28;20132;-59
2022/06/17 12:26:39;;;;;;;1.30;0.57;;;;;;;29.94;24.25;100846.88;10378146;28;20041;-62
2022/06/17 12:31:54;;;;;;;1.70;0.68;;;;;;;30.09;23.94;100843.66;10375910;28;20166;-59
2022/06/17 12:36:59;;;;;;;1.98;0.70;;;;;;;30.10;23.76;100830.75;10382012;28;20316;-60
2022/06/17 12:42:30;;;;;;;0.90;0.60;;;;;;;30.13;23.62;100808.31;10381019;28;20963;-61
2022/06/17 12:48:07;;;;;;;1.70;0.63;;;;;;;30.01;23.85;100805.59;10368316;28;20113;-58
2022/06/17 12:53:28;;;;;;;1.60;0.55;;;;;;;30.11;24.21;100800.31;10377661;28;20799;-58
2022/06/17 12:59:05;;;;;;;4.22;0.70;;;;;;;30.03;22.98;100799.88;10372886;28;20857;-59
2022/06/17 13:04:13;;;;;;;2.13;0.55;;;;;;;29.77;23.95;100786.34;10282495;28;20052;-59
2022/06/17 13:09:23;;;;;;;4.80;1.08;;;;;;;29.70;23.67;100782.06;10362241;28;20072;-62
2022/06/17 13:14:35;;;;;;;3.55;0.77;;;;;;;29.78;23.50;100773.47;10366317;28;20045;-62
2022/06/17 13:19:54;;;;;;;0.98;0.80;;;;;;;29.82;25.49;100771.94;10371520;28;20971;-58
2022/06/17 13:25:02;;;;;;;3.08;0.70;;;;;;;29.86;23.94;100767.66;10368169;28;20165;-63
2022/06/17 13:30:26;;;;;;;1.90;1.00;;;;;;;29.87;22.33;100763.00;10370034;28;20041;-63
2022/06/17 13:35:33;;;;;;;1.15;0.68;;;;;;;29.75;22.69;100754.75;10372329;28;20556;-62
2022/06/17 13:40:42;;;;;;;0.75;0.50;;;;;;;29.71;23.48;100743.41;10371748;28;20128;-63
2022/06/17 13:46:11;;;;;;;1.95;0.77;;;;;;;29.80;23.29;100732.94;10347924;28;20047;-62
2022/06/17 13:51:28;;;;;;;1.92;0.75;;;;;;;29.73;23.86;100733.03;10360054;28;20068;-62
2022/06/17 13:56:53;;;;;;;1.38;0.73;;;;;;;29.72;23.79;100722.31;10373633;28;21176;-62
2022/06/17 14:02:18;;;;;;;1.35;0.50;;;;;;;29.70;23.39;100729.94;10372824;28;20117;-63
2022/06/17 14:07:20;;;;;;;0.60;0.50;;;;;;;29.62;23.80;100725.66;10361297;28;20052;-62
2022/06/17 14:12:44;;;;;;;1.63;0.60;;;;;;;29.58;23.28;100722.53;10361132;28;20783;-64
2022/06/17 14:17:52;;;;;;;4.38;0.70;;;;;;;29.57;23.50;100726.34;10369180;28;20079;-65
2022/06/17 14:23:08;;;;;;;0.70;0.40;;;;;;;29.51;22.85;100729.22;10365186;28;20137;-64
2022/06/17 14:28:47;;;;;;;1.13;0.50;;;;;;;29.55;21.65;100722.19;10368865;28;20053;-65
2022/06/17 14:33:48;;;;;;;0.93;0.30;;;;;;;29.51;21.93;100732.78;10338359;28;20321;-65
2022/06/17 14:39:03;;;;;;;1.90;0.70;;;;;;;29.46;22.38;100726.38;10360121;28;20228;-64
2022/06/17 14:44:13;;;;;;;2.15;0.73;;;;;;;29.39;22.34;100721.81;10364121;28;20165;-63
2022/06/17 14:49:39;;;;;;;1.05;0.50;;;;;;;29.36;21.92;100719.56;10375240;23;20394;-63
2022/06/17 14:54:41;;;;;;;2.58;0.68;;;;;;;29.29;21.82;100696.06;10359424;28;20422;-61
2022/06/17 14:59:43;;;;;;;1.50;0.47;;;;;;;29.22;22.38;100701.69;10353813;28;20079;-63
2022/06/17 15:04:47;;;;;;;;;;;;;;;29.21;22.44;100692.59;10363207;28;20114;-64
2022/06/17 15:09:54;;;;;;;0.85;0.32;;;;;;;29.24;22.65;100683.91;10358710;28;20038;-63
2022/06/17 15:15:13;;;;;;;0.60;0.25;;;;;;;29.20;21.88;100682.69;10358601;28;20049;-63
2022/06/17 15:20:19;;;;;;;0.95;0.20;;;;;;;29.19;21.38;100678.28;10363651;28;20644;-62
2022/06/17 15:25:52;;;;;;;1.75;0.45;;;;;;;29.24;20.08;100666.63;10359226;28;20053;-63
2022/06/17 15:30:53;;;;;;;3.70;0.30;;;;;;;29.26;20.32;100659.84;10365788;28;20080;-63
2022/06/17 15:36:01;;;;;;;1.40;0.23;;;;;;;29.30;20.59;100659.38;10364866;28;20571;-62
2022/06/17 15:41:15;;;;;;;1.25;0.30;;;;;;;29.29;20.75;100652.22;10368095;28;20124;-62
2022/06/17 15:46:22;;;;;;;4.72;0.70;;;;;;;29.29;21.69;100652.22;10361620;28;20072;-63
2022/06/17 15:51:24;;;;;;;1.42;0.20;;;;;;;29.34;21.59;100646.84;10359975;28;20061;-61
2022/06/17 15:56:33;;;;;;;2.20;0.35;;;;;;;29.26;21.49;100643.41;10357665;28;20427;-63
2022/06/17 16:01:44;;;;;;;2.05;0.75;;;;;;;29.27;21.42;100639.59;10357007;28;20132;-61
2022/06/17 16:07:15;;;;;;;4.77;0.97;;;;;;;29.34;21.30;100646.84;10355048;28;20756;-62
2022/06/17 16:12:29;;;;;;;2.08;0.35;;;;;;;29.33;21.53;100642.44;10337839;28;20049;-64
2022/06/17 16:17:36;;;;;;;1.88;0.40;;;;;;;29.37;21.51;100649.13;10367109;28;20049;-64
2022/06/17 16:22:37;;;;;;;0.75;0.30;;;;;;;29.35;21.45;100634.78;10367079;28;20064;-62
2022/06/17 16:27:54;;;;;;;2.90;0.80;;;;;;;29.35;21.69;100643.03;10368070;28;20190;-64
2022/06/17 16:33:06;;;;;;;2.60;0.43;;;;;;;29.29;21.83;100652.22;10368476;28;20314;-63
2022/06/17 16:38:21;;;;;;;1.35;0.30;;;;;;;29.40;21.55;100643.16;10365602;28;21181;-61
2022/06/17 16:48:58;;;;;;;0.93;0.20;;;;;;;29.36;21.92;100636.47;10367557;28;20094;-66
2022/06/17 16:54:03;;;;;;;0.70;0.30;;;;;;;29.32;20.83;100640.75;10368258;28;20045;-63
2022/06/17 16:59:04;;;;;;;2.15;1.23;;;;;;;29.27;20.50;100631.38;10369558;28;20456;-61
2022/06/17 17:04:05;;;;;;;1.23;0.30;;;;;;;29.24;20.73;100648.25;10371979;28;20049;-62
2022/06/17 17:09:07;;;;;;;2.03;0.23;;;;;;;29.19;20.92;100642.66;10371758;28;20041;-63
2022/06/17 17:14:10;;;;;;;2.13;0.30;;;;;;;29.18;21.33;100640.97;10365513;28;20059;-63
2022/06/17 17:19:12;;;;;;;0.68;0.20;;;;;;;29.16;21.23;100645.84;10362994;28;20064;-68
2022/06/17 17:24:18;;;;;;;1.48;0.10;;;;;;;29.11;21.34;100651.22;10353028;28;20049;-63
2022/06/17 17:29:20;;;;;;;0.70;0.15;;;;;;;29.05;21.88;100643.94;10376786;28;20560;-63
2022/06/17 17:34:22;;;;;;;0.90;0.30;;;;;;;28.97;21.77;100653.34;10371879;28;20060;-63
2022/06/17 17:39:23;;;;;;;1.87;0.30;;;;;;;28.91;22.58;100652.41;10368126;28;20661;-63
2022/06/17 17:44:25;;;;;;;2.53;0.23;;;;;;;28.81;22.65;100638.44;10370071;28;20053;-62
2022/06/17 17:49:46;;;;;;;1.20;0.33;;;;;;;28.78;23.07;100633.44;10373269;28;20471;-63
2022/06/17 17:54:48;;;;;;;1.67;0.32;;;;;;;28.71;23.34;100635.44;10366269;28;20049;-63
2022/06/17 17:59:49;;;;;;;0.70;0.38;;;;;;;28.63;23.63;100627.56;10368564;28;20106;-63
2022/06/17 18:04:54;;;;;;;0.68;0.20;;;;;;;28.61;23.80;100640.66;10370730;28;20144;-63
2022/06/17 18:09:56;;;;;;;3.22;0.60;;;;;;;28.47;24.21;100624.38;10374999;28;20091;-63
2022/06/17 18:14:58;;;;;;;0.77;0.30;;;;;;;28.42;24.41;100629.75;10360828;28;20217;-64
2022/06/17 18:19:59;;;;;;;;;;;;;;;28.31;24.38;100625.03;10349130;28;20057;-63
2022/06/17 18:25:01;;;;;;;0.90;0.50;;;;;;;28.24;24.67;100629.78;10371160;28;19986;-63
2022/06/17 18:30:05;;;;;;;1.92;0.40;;;;;;;28.14;24.98;100614.75;10366722;28;20128;-63
2022/06/17 18:35:15;;;;;;;1.85;0.60;;;;;;;28.03;24.96;100621.00;10368993;28;20045;-63
2022/06/17 18:40:20;;;;;;;2.10;0.63;;;;;;;27.91;25.05;100614.59;10367743;28;20186;-63
2022/06/17 18:45:28;;;;;;;2.17;1.00;;;;;;;27.85;25.28;100622.66;10364313;28;20080;-63
2022/06/17 18:50:35;;;;;;;1.70;0.80;;;;;;;27.74;25.30;100617.94;10361847;28;20618;-64
2022/06/17 18:55:37;;;;;;;1.60;0.80;;;;;;;27.63;25.52;100607.78;10363396;28;20497;-63
2022/06/17 19:00:42;;;;;;;3.20;0.88;;;;;;;27.55;25.59;100616.28;10359252;28;20140;-63
2022/06/17 19:05:45;;;;;;;1.45;0.70;;;;;;;27.45;26.18;100606.72;10349534;28;20049;-63
2022/06/17 19:21:35;;;;;;;2.28;1.20;;;;;;;27.21;26.58;100602.94;10358629;28;20139;-62
2022/06/17 19:26:36;;;;;;;5.32;1.27;;;;;;;27.15;27.08;100595.66;10359394;28;20149;-62
2022/06/17 19:31:43;;;;;;;3.00;1.40;;;;;;;27.07;26.97;100599.50;10361317;28;20729;-62
2022/06/17 19:36:45;;;;;;;7.60;2.08;;;;;;;26.95;27.32;100601.31;10361113;28;20549;-62
2022/06/17 19:41:51;;;;;;;;;;;;;;;26.89;27.73;100616.69;10361435;28;20091;-62
2022/06/17 19:46:56;;;;;;;3.25;1.48;;;;;;;26.81;27.75;100612.34;10366796;28;20041;-62
2022/06/17 19:51:58;;;;;;;3.65;1.70;;;;;;;26.75;28.19;100624.16;10369241;28;20046;-62
2022/06/17 19:57:00;;;;;;;4.37;1.60;;;;;;;26.68;28.23;100627.97;10362500;28;20060;-62
2022/06/17 20:02:01;;;;;;;5.10;1.70;;;;;;;26.61;28.41;100625.25;10369645;28;20057;-62
2022/06/17 20:07:03;;;;;;;2.88;1.50;;;;;;;26.53;28.66;100626.38;10374411;28;20041;-62
2022/06/17 20:12:06;;;;;;;5.15;2.03;;;;;;;26.48;29.18;100622.63;10368552;28;20701;-62
2022/06/17 20:17:09;;;;;;;6.10;2.13;;;;;;;26.38;29.39;100623.94;10364415;28;20063;-64
2022/06/17 20:22:15;;;;;;;3.47;2.13;;;;;;;26.30;29.53;100621.44;10366971;28;20210;-65
2022/06/17 20:27:20;;;;;;;5.35;2.60;;;;;;;26.21;29.73;100622.78;10370910;28;20067;-65
2022/06/17 20:32:22;;;;;;;3.35;2.28;;;;;;;26.15;30.23;100610.00;10366514;28;20110;-65
2022/06/17 20:37:29;;;;;;;3.58;1.73;;;;;;;26.05;30.13;100611.31;10368164;28;20123;-65
2022/06/17 20:42:33;;;;;;;4.25;2.05;;;;;;;25.96;30.40;100619.91;10371243;28;20105;-65
2022/06/17 20:52:55;;;;;;;6.78;2.92;;;;;;;25.80;31.33;100613.06;10370579;28;20835;-64
2022/06/17 20:58:10;;;;;;;4.40;2.83;;;;;;;25.75;31.55;100614.56;10369108;28;20062;-65
2022/06/17 21:03:14;;;;;;;4.63;3.55;;;;;;;25.66;31.76;100610.38;10367820;28;20123;-65
2022/06/17 21:08:18;;;;;;;4.70;3.95;;;;;;;25.57;32.08;100608.97;10372932;28;20095;-65
2022/06/17 21:13:24;;;;;;;5.90;4.43;;;;;;;25.44;32.36;100596.19;10367099;28;20069;-64
2022/06/17 21:18:26;;;;;;;5.65;3.60;;;;;;;25.39;32.53;100599.56;10363330;28;20682;-65
2022/06/17 21:23:27;;;;;;;5.67;4.13;;;;;;;25.34;32.95;100603.97;10370537;28;20401;-64
2022/06/17 21:28:29;;;;;;;4.13;3.45;;;;;;;25.26;32.65;100615.91;10370775;28;20420;-64
2022/06/17 21:33:30;;;;;;;4.20;3.78;;;;;;;25.20;32.78;100617.56;10360124;28;20056;-64
2022/06/17 21:38:37;;;;;;;3.88;3.28;;;;;;;25.14;32.97;100614.88;10368003;28;20060;-64
2022/06/17 21:43:38;;;;;;;4.75;3.60;;;;;;;25.09;32.89;100615.50;10368300;28;20090;-64
2022/06/17 21:48:40;;;;;;;5.18;3.42;;;;;;;24.99;33.05;100621.34;10366659;28;20083;-64
2022/06/17 21:53:43;;;;;;;6.05;3.30;;;;;;;24.93;33.66;100624.09;10363287;28;20061;-66
2022/06/17 21:58:46;;;;;;;3.25;2.70;;;;;;;24.85;33.50;100636.03;10359107;28;20155;-58
2022/06/17 22:03:47;;;;;;;5.97;2.40;;;;;;;24.76;34.92;100629.94;10376078;28;20091;-57
2022/06/17 22:08:51;;;;;;;3.15;2.53;;;;;;;24.67;35.26;100629.31;10379492;28;20053;-58
2022/06/17 22:13:53;;;;;;;8.05;2.53;;;;;;;24.60;35.16;100628.47;10376500;28;20045;-58
2022/06/17 22:18:55;;;;;;;4.18;2.50;;;;;;;24.51;34.99;100630.50;10372087;28;20514;-59
2022/06/17 22:23:56;;;;;;;4.85;2.65;;;;;;;24.45;35.22;100630.50;10369617;28;20054;-62
2022/06/17 22:28:59;;;;;;;2.80;2.10;;;;;;;24.37;35.39;100633.41;10372180;28;20110;-59
2022/06/17 22:34:00;;;;;;;;;;;;;;;24.31;35.77;100629.63;10367920;28;20119;-58
2022/06/17 22:39:02;;;;;;;3.03;2.30;;;;;;;24.26;35.79;100622.09;10370949;28;20402;-59
2022/06/17 22:44:04;;;;;;;4.35;2.33;;;;;;;24.23;35.80;100627.94;10375682;28;20081;-62
2022/06/17 22:49:07;;;;;;;2.05;1.80;;;;;;;24.15;35.57;100625.38;10373403;28;20094;-58
2022/06/17 22:54:15;;;;;;;;;;;;;;;24.10;36.04;100626.00;10374685;28;20143;-58
2022/06/17 22:59:17;;;;;;;3.90;2.50;;;;;;;24.04;35.94;100634.16;10367348;28;19921;-58
2022/06/17 23:09:42;;;;;;;3.03;2.33;;;;;;;23.87;36.64;100618.19;10371388;28;20055;-58
2022/06/17 23:14:44;;;;;;;3.85;2.30;;;;;;;23.81;36.82;100616.25;10371608;28;20179;-58
2022/06/17 23:20:00;;;;;;;3.13;2.00;;;;;;;23.73;37.29;100619.13;10371770;28;20049;-58
2022/06/17 23:25:16;;;;;;;3.80;2.05;;;;;;;23.65;37.68;100620.97;10375347;28;20072;-60
2022/06/17 23:30:18;;;;;;;3.50;2.58;;;;;;;23.57;38.09;100612.13;10367450;28;20473;-58
2022/06/17 23:35:25;;;;;;;5.57;2.77;;;;;;;23.49;38.48;100621.28;10373271;28;20186;-58
2022/06/17 23:40:28;;;;;;;2.95;2.40;;;;;;;23.40;39.08;100611.63;10374388;28;20078;-58
2022/06/17 23:45:30;;;;;;;3.78;2.10;;;;;;;23.34;39.04;100615.13;10373503;28;20099;-58
2022/06/17 23:50:36;;;;;;;3.08;2.25;;;;;;;23.26;39.14;100616.97;10368942;28;20578;-59
2022/06/17 23:55:43;;;;;;;3.90;2.50;;;;;;;23.18;39.83;100614.41;10374012;28;20123;-58
